createdAt,value
2023-03-26T00:02:02.831Z,100.00
2023-03-26T00:04:33.249Z,100.00
2023-03-26T00:07:03.095Z,100.00
2023-03-26T00:09:31.183Z,100.00
2023-03-26T00:11:58.923Z,100.00
2023-03-26T00:14:26.952Z,100.00
2023-03-26T00:16:54.783Z,100.00
2023-03-26T00:19:22.824Z,100.00
2023-03-26T00:21:52.531Z,100.00
2023-03-26T00:24:21.676Z,100.00
2023-03-26T00:26:53.463Z,100.00
2023-03-26T00:29:23.081Z,100.00
2023-03-26T00:31:50.900Z,100.00
2023-03-26T00:34:19.237Z,100.00
2023-03-26T00:36:47.843Z,100.00
2023-03-26T00:39:17.708Z,100.00
2023-03-26T00:41:46.907Z,100.00
2023-03-26T00:44:14.720Z,100.00
2023-03-26T00:46:42.868Z,100.00
2023-03-26T00:49:14.661Z,100.00
2023-03-26T00:51:44.084Z,100.00
2023-03-26T00:54:11.875Z,100.00
2023-03-26T00:56:39.756Z,100.00
2023-03-26T00:59:09.316Z,100.00
2023-03-26T01:01:37.827Z,100.00
2023-03-26T01:04:30.572Z,100.00
2023-03-26T01:07:01.728Z,100.00
2023-03-26T01:09:34.870Z,100.00
2023-03-26T01:12:04.564Z,100.00
2023-03-26T01:14:33.950Z,100.00
2023-03-26T01:17:03.693Z,100.00
2023-03-26T01:19:38.969Z,100.00
2023-03-26T01:22:09.686Z,100.00
2023-03-26T01:24:39.337Z,100.00
2023-03-26T01:27:29.425Z,100.00
2023-03-26T01:30:03.691Z,100.00
2023-03-26T01:32:52.776Z,100.00
2023-03-26T01:35:35.063Z,100.00
2023-03-26T01:38:11.663Z,100.00
2023-03-26T01:40:46.994Z,100.00
2023-03-26T01:43:25.353Z,100.00
2023-03-26T01:45:54.917Z,100.00
2023-03-26T01:48:30.659Z,100.00
2023-03-26T01:50:58.832Z,100.00
2023-03-26T01:53:27.253Z,100.00
2023-03-26T01:56:06.930Z,100.00
2023-03-26T01:58:41.426Z,100.00
2023-03-26T02:01:24.419Z,100.00
2023-03-26T02:04:00.192Z,100.00
2023-03-26T02:06:31.641Z,100.00
2023-03-26T02:09:02.842Z,100.00
2023-03-26T02:11:35.370Z,100.00
2023-03-26T02:14:05.275Z,100.00
2023-03-26T02:16:33.126Z,100.00
2023-03-26T02:19:01.025Z,100.00
2023-03-26T02:21:29.338Z,100.00
2023-03-26T02:24:03.225Z,100.00
2023-03-26T02:26:34.449Z,100.00
2023-03-26T02:29:02.774Z,100.00
2023-03-26T02:31:30.844Z,100.00
2023-03-26T02:33:58.798Z,100.00
2023-03-26T02:36:28.501Z,100.00
2023-03-26T02:38:57.866Z,100.00
2023-03-26T02:41:25.833Z,100.00
2023-03-26T02:43:54.911Z,100.00
2023-03-26T02:46:22.695Z,100.00
2023-03-26T02:48:50.484Z,100.00
2023-03-26T02:51:20.206Z,100.00
2023-03-26T02:53:47.973Z,100.00
2023-03-26T02:56:15.928Z,100.00
2023-03-26T02:58:43.659Z,100.00
2023-03-26T03:01:13.134Z,100.00
2023-03-26T03:03:41.547Z,100.00
2023-03-26T03:06:10.110Z,100.00
2023-03-26T03:08:37.833Z,100.00
2023-03-26T03:11:10.965Z,100.00
2023-03-26T03:13:38.715Z,100.00
2023-03-26T03:16:07.811Z,100.00
2023-03-26T03:18:37.609Z,100.00
2023-03-26T03:21:06.170Z,99.66
2023-03-26T03:23:33.990Z,98.78
2023-03-26T03:26:02.672Z,97.69
2023-03-26T03:28:30.512Z,96.12
2023-03-26T03:30:59.117Z,94.66
2023-03-26T03:33:26.968Z,93.92
2023-03-26T03:35:56.244Z,93.19
2023-03-26T03:38:24.300Z,92.92
2023-03-26T03:40:54.324Z,92.50
2023-03-26T03:43:22.126Z,92.41
2023-03-26T03:45:49.911Z,91.64
2023-03-26T03:48:18.869Z,91.72
2023-03-26T03:50:46.623Z,92.25
2023-03-26T03:53:15.937Z,92.97
2023-03-26T03:55:52.783Z,92.03
2023-03-26T03:58:22.026Z,91.75
2023-03-26T04:00:50.416Z,91.44
2023-03-26T04:03:18.824Z,91.74
2023-03-26T04:05:49.531Z,91.17
2023-03-26T04:08:18.661Z,91.13
2023-03-26T04:10:46.546Z,91.64
2023-03-26T04:13:15.778Z,91.92
2023-03-26T04:15:45.073Z,92.00
2023-03-26T04:18:12.842Z,92.20
2023-03-26T04:20:46.338Z,91.42
2023-03-26T04:23:14.614Z,91.46
2023-03-26T04:25:48.424Z,91.80
2023-03-26T04:28:26.390Z,91.65
2023-03-26T04:30:54.811Z,92.22
2023-03-26T04:33:22.665Z,91.89
2023-03-26T04:35:50.541Z,91.55
2023-03-26T04:38:18.695Z,92.00
2023-03-26T04:40:48.154Z,92.45
2023-03-26T04:43:17.963Z,93.23
2023-03-26T04:45:47.801Z,93.53
2023-03-26T04:48:15.598Z,93.87
2023-03-26T04:50:44.690Z,93.96
2023-03-26T04:53:15.122Z,94.48
2023-03-26T04:55:48.862Z,94.80
2023-03-26T04:58:18.467Z,94.73
2023-03-26T05:00:47.452Z,94.97
2023-03-26T05:03:15.581Z,95.17
2023-03-26T05:05:43.713Z,95.34
2023-03-26T05:08:11.624Z,95.70
2023-03-26T05:10:39.360Z,95.85
2023-03-26T05:13:08.242Z,96.40
2023-03-26T05:15:37.312Z,96.66
2023-03-26T05:18:05.322Z,96.76
2023-03-26T05:20:33.433Z,96.39
2023-03-26T05:23:01.423Z,96.60
2023-03-26T05:25:29.370Z,96.50
2023-03-26T05:27:57.159Z,97.15
2023-03-26T05:30:25.482Z,97.17
2023-03-26T05:32:54.682Z,97.18
2023-03-26T05:35:22.820Z,96.26
2023-03-26T05:37:51.490Z,95.59
2023-03-26T05:40:20.192Z,95.23
2023-03-26T05:42:48.498Z,94.99
2023-03-26T05:45:16.693Z,94.64
2023-03-26T05:47:44.619Z,94.33
2023-03-26T05:50:13.807Z,93.76
2023-03-26T05:52:41.561Z,93.30
2023-03-26T05:55:10.363Z,93.25
2023-03-26T05:57:39.146Z,93.06
2023-03-26T06:00:08.916Z,93.02
2023-03-26T06:02:36.954Z,92.52
2023-03-26T06:05:05.614Z,92.97
2023-03-26T06:07:35.161Z,93.35
2023-03-26T06:10:03.188Z,93.19
2023-03-26T06:12:31.022Z,91.77
2023-03-26T06:14:58.738Z,91.21
2023-03-26T06:17:26.581Z,90.71
2023-03-26T06:19:54.414Z,90.43
2023-03-26T06:22:22.188Z,90.62
2023-03-26T06:24:52.841Z,90.93
2023-03-26T06:27:20.742Z,91.27
2023-03-26T06:29:48.478Z,90.84
2023-03-26T06:32:20.196Z,90.18
2023-03-26T06:34:48.436Z,89.34
2023-03-26T06:37:16.386Z,88.15
2023-03-26T06:39:44.206Z,87.45
2023-03-26T06:42:13.395Z,86.46
2023-03-26T06:44:41.139Z,84.87
2023-03-26T06:47:08.907Z,83.12
2023-03-26T06:49:38.187Z,83.32
2023-03-26T06:52:06.228Z,83.63
2023-03-26T06:54:34.041Z,84.20
2023-03-26T06:57:01.980Z,83.34
2023-03-26T06:59:31.373Z,81.56
2023-03-26T07:01:59.156Z,81.05
2023-03-26T07:04:27.009Z,80.79
2023-03-26T07:06:54.962Z,80.32
2023-03-26T07:09:22.783Z,80.41
2023-03-26T07:11:50.760Z,80.02
2023-03-26T07:14:18.546Z,77.45
2023-03-26T07:16:47.649Z,76.86
2023-03-26T07:19:15.501Z,76.87
2023-03-26T07:21:43.911Z,76.08
2023-03-26T07:24:13.732Z,77.24
2023-03-26T07:26:51.288Z,77.04
2023-03-26T07:29:28.904Z,75.25
2023-03-26T07:32:04.399Z,73.50
2023-03-26T07:34:46.185Z,69.90
2023-03-26T07:37:28.432Z,70.85
2023-03-26T07:40:00.069Z,71.33
2023-03-26T07:42:39.477Z,67.90
2023-03-26T07:45:18.225Z,68.22
2023-03-26T07:47:49.471Z,66.64
2023-03-26T07:50:19.567Z,67.40
2023-03-26T07:52:47.922Z,67.30
2023-03-26T07:55:17.330Z,67.34
2023-03-26T07:57:57.727Z,66.26
2023-03-26T08:00:31.486Z,65.95
2023-03-26T08:03:18.138Z,65.06
2023-03-26T08:05:52.132Z,65.50
2023-03-26T08:08:25.909Z,63.83
2023-03-26T08:11:08.496Z,63.37
2023-03-26T08:13:56.967Z,63.49
2023-03-26T08:16:29.218Z,62.62
2023-03-26T08:19:06.111Z,63.60
2023-03-26T08:21:39.619Z,62.81
2023-03-26T08:24:14.371Z,63.25
2023-03-26T08:26:52.115Z,62.08
2023-03-26T08:29:27.424Z,62.09
2023-03-26T08:31:57.411Z,62.53
2023-03-26T08:34:26.575Z,64.17
2023-03-26T08:36:54.355Z,63.09
2023-03-26T08:39:22.483Z,63.50
2023-03-26T08:42:24.899Z,62.74
2023-03-26T08:45:31.397Z,62.59
2023-03-26T08:48:36.729Z,62.27
2023-03-26T08:51:34.676Z,62.71
2023-03-26T08:54:31.676Z,60.22
2023-03-26T08:57:19.997Z,61.87
2023-03-26T09:00:17.200Z,60.74
2023-03-26T09:03:11.694Z,59.67
2023-03-26T09:06:13.990Z,60.96
2023-03-26T09:09:21.196Z,59.56
2023-03-26T09:12:17.732Z,59.63
2023-03-26T09:15:24.592Z,60.56
2023-03-26T09:18:25.310Z,59.41
2023-03-26T09:21:10.975Z,59.63
2023-03-26T09:24:11.953Z,59.18
2023-03-26T09:26:47.824Z,58.35
2023-03-26T09:30:06.835Z,58.15
2023-03-26T09:33:02.723Z,58.77
2023-03-26T09:35:53.163Z,59.47
2023-03-26T09:38:37.910Z,58.48
2023-03-26T09:41:11.835Z,57.84
2023-03-26T09:44:18.965Z,57.60
2023-03-26T09:47:02.150Z,58.00
2023-03-26T09:49:48.700Z,57.23
2023-03-26T09:52:42.440Z,57.05
2023-03-26T09:55:51.007Z,56.53
2023-03-26T09:58:52.391Z,56.07
2023-03-26T10:01:32.162Z,55.29
2023-03-26T10:04:41.063Z,55.86
2023-03-26T10:07:30.144Z,56.90
2023-03-26T10:10:05.272Z,56.28
2023-03-26T10:12:38.246Z,54.63
2023-03-26T10:15:27.914Z,55.29
2023-03-26T10:18:26.698Z,54.50
2023-03-26T10:21:02.671Z,54.81
2023-03-26T10:23:59.655Z,53.16
2023-03-26T10:27:09.956Z,52.38
2023-03-26T10:30:09.646Z,54.04
2023-03-26T10:32:47.846Z,54.81
2023-03-26T10:35:27.327Z,53.46
2023-03-26T10:38:08.565Z,53.78
2023-03-26T10:40:45.930Z,54.02
2023-03-26T10:43:47.976Z,52.94
2023-03-26T10:46:37.676Z,50.98
2023-03-26T10:49:34.616Z,51.71
2023-03-26T10:52:04.786Z,52.36
2023-03-26T10:54:49.582Z,53.01
2023-03-26T10:57:27.502Z,53.40
2023-03-26T10:59:58.543Z,53.40
2023-03-26T11:02:30.837Z,52.54
2023-03-26T11:05:21.246Z,52.37
2023-03-26T11:07:55.945Z,54.39
2023-03-26T11:10:38.736Z,53.92
2023-03-26T11:13:18.912Z,54.89
2023-03-26T11:15:51.737Z,55.16
2023-03-26T11:18:24.774Z,53.97
2023-03-26T11:21:19.341Z,53.97
2023-03-26T11:24:05.442Z,54.92
2023-03-26T11:26:44.212Z,54.25
2023-03-26T11:29:32.823Z,53.16
2023-03-26T11:32:06.976Z,52.92
2023-03-26T11:34:38.820Z,53.09
2023-03-26T11:37:15.192Z,53.95
2023-03-26T11:39:50.623Z,53.58
2023-03-26T11:42:24.519Z,53.09
2023-03-26T11:44:56.483Z,53.33
2023-03-26T11:47:29.858Z,51.91
2023-03-26T11:49:59.980Z,52.14
2023-03-26T11:52:28.403Z,53.65
2023-03-26T11:54:58.481Z,53.46
2023-03-26T11:57:33.253Z,53.34
2023-03-26T12:00:11.071Z,51.84
2023-03-26T12:02:40.577Z,51.75
2023-03-26T12:05:18.264Z,51.89
2023-03-26T12:07:57.298Z,52.10
2023-03-26T12:10:29.630Z,50.27
2023-03-26T12:13:01.399Z,51.88
2023-03-26T12:15:31.611Z,50.90
2023-03-26T12:18:18.421Z,50.54
2023-03-26T12:20:46.223Z,51.71
2023-03-26T12:23:36.772Z,51.61
2023-03-26T12:26:13.047Z,50.98
2023-03-26T12:28:46.127Z,51.20
2023-03-26T12:31:18.094Z,51.64
2023-03-26T12:33:52.872Z,51.61
2023-03-26T12:36:26.414Z,50.86
2023-03-26T12:40:06.077Z,52.22
2023-03-26T12:44:42.121Z,51.24
2023-03-26T12:44:54.133Z,50.69
2023-03-26T12:47:59.419Z,52.31
2023-03-26T12:50:15.434Z,51.01
2023-03-26T12:53:00.387Z,51.43
2023-03-26T12:55:48.975Z,51.38
2023-03-26T12:58:41.404Z,52.87
2023-03-26T13:01:16.351Z,52.80
2023-03-26T13:04:03.396Z,51.79
2023-03-26T13:06:59.486Z,52.05
2023-03-26T13:09:52.840Z,50.90
2023-03-26T13:12:36.451Z,53.06
2023-03-26T13:15:17.782Z,53.68
2023-03-26T13:17:58.245Z,54.24
2023-03-26T13:20:35.077Z,53.20
2023-03-26T13:23:10.447Z,51.74
2023-03-26T13:25:47.828Z,51.41
2023-03-26T13:28:25.734Z,52.04
2023-03-26T13:31:04.379Z,52.18
2023-03-26T13:33:44.219Z,52.31
2023-03-26T13:36:23.806Z,52.43
2023-03-26T13:39:13.191Z,51.62
2023-03-26T13:41:56.330Z,51.59
2023-03-26T13:44:36.203Z,52.55
2023-03-26T13:47:10.077Z,51.82
2023-03-26T13:49:44.993Z,52.83
2023-03-26T13:52:18.414Z,52.07
2023-03-26T13:54:50.208Z,52.50
2023-03-26T13:57:25.545Z,52.96
2023-03-26T13:59:59.396Z,53.41
2023-03-26T14:02:34.700Z,52.86
2023-03-26T14:05:10.170Z,53.38
2023-03-26T14:07:44.660Z,53.68
2023-03-26T14:10:16.427Z,54.25
2023-03-26T14:12:54.768Z,53.41
2023-03-26T14:15:27.979Z,52.78
2023-03-26T14:18:06.095Z,52.93
2023-03-26T14:21:10.268Z,52.30
2023-03-26T14:24:03.039Z,52.98
2023-03-26T14:26:47.948Z,53.09
2023-03-26T14:29:56.798Z,54.21
2023-03-26T14:32:49.564Z,56.14
2023-03-26T14:35:35.614Z,58.69
2023-03-26T14:38:34.669Z,60.66
2023-03-26T14:41:11.395Z,61.17
2023-03-26T14:44:10.996Z,62.53
2023-03-26T14:46:50.364Z,61.93
2023-03-26T14:49:33.972Z,63.56
2023-03-26T14:52:10.541Z,64.17
2023-03-26T14:54:44.508Z,65.99
2023-03-26T14:57:47.046Z,67.42
2023-03-26T15:01:04.317Z,71.75
2023-03-26T15:04:08.911Z,74.06
2023-03-26T15:07:27.647Z,75.55
2023-03-26T15:10:23.648Z,78.35
2023-03-26T15:13:20.872Z,79.20
2023-03-26T15:16:18.091Z,75.31
2023-03-26T15:19:30.926Z,77.11
2023-03-26T15:22:35.319Z,77.95
2023-03-26T15:25:52.033Z,78.20
2023-03-26T15:29:03.316Z,76.34
2023-03-26T15:31:58.647Z,75.35
2023-03-26T15:35:06.794Z,75.57
2023-03-26T15:38:17.856Z,75.37
2023-03-26T15:40:57.339Z,75.57
2023-03-26T15:43:30.529Z,74.24
2023-03-26T15:46:27.108Z,74.99
2023-03-26T15:49:11.724Z,75.06
2023-03-26T15:51:52.021Z,76.00
2023-03-26T15:54:27.444Z,73.68
2023-03-26T15:57:18.581Z,73.83
2023-03-26T16:00:12.310Z,73.63
2023-03-26T16:02:50.149Z,73.83
2023-03-26T16:05:34.514Z,73.90
2023-03-26T16:08:14.867Z,73.57
2023-03-26T16:10:48.719Z,74.82
2023-03-26T16:13:34.195Z,74.85
2023-03-26T16:16:22.559Z,75.00
2023-03-26T16:18:56.497Z,74.21
2023-03-26T16:21:40.144Z,74.48
2023-03-26T16:24:24.394Z,74.50
2023-03-26T16:27:10.525Z,75.24
2023-03-26T16:30:23.197Z,75.16
2023-03-26T16:32:58.730Z,75.92
2023-03-26T16:35:46.391Z,76.72
2023-03-26T16:38:16.500Z,76.26
2023-03-26T16:41:00.664Z,76.54
2023-03-26T16:43:50.331Z,77.07
2023-03-26T16:46:29.593Z,76.76
2023-03-26T16:49:04.741Z,77.42
2023-03-26T16:51:47.335Z,77.85
2023-03-26T16:54:23.632Z,78.34
2023-03-26T16:56:58.394Z,78.50
2023-03-26T16:59:46.728Z,79.55
2023-03-26T17:02:36.708Z,79.82
2023-03-26T17:05:19.783Z,79.45
2023-03-26T17:07:55.419Z,80.38
2023-03-26T17:10:31.933Z,80.52
2023-03-26T17:13:04.854Z,80.86
2023-03-26T17:15:41.533Z,81.67
2023-03-26T17:18:31.480Z,82.27
2023-03-26T17:21:06.355Z,82.35
2023-03-26T17:24:01.324Z,82.72
2023-03-26T17:26:34.498Z,82.99
2023-03-26T17:29:15.013Z,83.20
2023-03-26T17:31:46.177Z,83.36
2023-03-26T17:34:55.013Z,83.87
2023-03-26T17:37:45.836Z,83.91
2023-03-26T17:40:49.118Z,84.13
2023-03-26T17:43:38.641Z,84.63
2023-03-26T17:46:16.255Z,84.95
2023-03-26T17:48:49.655Z,85.10
2023-03-26T17:51:37.109Z,85.98
2023-03-26T17:54:15.429Z,86.54
2023-03-26T17:56:43.825Z,87.17
2023-03-26T17:59:23.196Z,87.48
2023-03-26T18:01:55.480Z,88.52
2023-03-26T18:04:31.761Z,88.77
2023-03-26T18:07:40.265Z,89.63
2023-03-26T18:10:24.488Z,90.02
2023-03-26T18:13:06.439Z,90.60
2023-03-26T18:15:45.164Z,90.46
2023-03-26T18:18:19.791Z,90.99
2023-03-26T18:20:49.192Z,91.28
2023-03-26T18:23:26.810Z,91.73
2023-03-26T18:25:59.749Z,92.74
2023-03-26T18:28:35.940Z,93.65
2023-03-26T18:31:16.691Z,93.38
2023-03-26T18:33:46.377Z,93.56
2023-03-26T18:36:16.158Z,94.09
2023-03-26T18:38:44.026Z,94.67
2023-03-26T18:41:24.670Z,95.15
2023-03-26T18:43:52.587Z,95.33
2023-03-26T18:46:20.813Z,95.21
2023-03-26T18:48:48.663Z,94.97
2023-03-26T18:51:22.974Z,95.26
2023-03-26T18:53:53.140Z,96.09
2023-03-26T18:56:32.001Z,96.34
2023-03-26T18:59:01.130Z,97.24
2023-03-26T19:01:32.966Z,97.63
2023-03-26T19:04:04.926Z,97.52
2023-03-26T19:06:38.189Z,97.31
2023-03-26T19:09:23.701Z,96.95
2023-03-26T19:12:00.313Z,96.77
2023-03-26T19:14:28.850Z,96.68
2023-03-26T19:17:00.567Z,96.71
2023-03-26T19:19:33.725Z,96.48
2023-03-26T19:22:03.417Z,95.77
2023-03-26T19:24:31.698Z,95.44
2023-03-26T19:27:01.122Z,94.56
2023-03-26T19:29:32.508Z,94.05
2023-03-26T19:32:05.018Z,93.41
2023-03-26T19:34:34.881Z,93.19
2023-03-26T19:37:04.960Z,93.06
2023-03-26T19:39:41.615Z,92.87
2023-03-26T19:42:16.021Z,93.09
2023-03-26T19:44:44.706Z,93.02
2023-03-26T19:47:18.932Z,93.04
2023-03-26T19:49:55.976Z,93.02
2023-03-26T19:52:26.625Z,93.02
2023-03-26T19:55:00.190Z,92.78
2023-03-26T19:57:32.064Z,92.84
2023-03-26T20:00:00.284Z,92.53
2023-03-26T20:02:28.831Z,92.43
2023-03-26T20:04:56.797Z,92.57
2023-03-26T20:07:35.862Z,92.72
2023-03-26T20:10:06.204Z,93.21
2023-03-26T20:12:35.371Z,93.38
2023-03-26T20:15:03.232Z,93.41
2023-03-26T20:17:34.819Z,94.03
2023-03-26T20:20:05.750Z,94.47
2023-03-26T20:22:33.688Z,94.62
2023-03-26T20:25:03.159Z,94.49
2023-03-26T20:27:31.085Z,94.52
2023-03-26T20:30:00.304Z,94.67
2023-03-26T20:32:28.152Z,94.94
2023-03-26T20:34:57.710Z,95.42
2023-03-26T20:37:25.630Z,96.26
2023-03-26T20:39:53.356Z,96.76
2023-03-26T20:42:21.430Z,97.34
2023-03-26T20:44:49.227Z,97.83
2023-03-26T20:47:18.320Z,97.72
2023-03-26T20:49:46.105Z,97.64
2023-03-26T20:52:15.414Z,97.80
2023-03-26T20:54:43.582Z,98.27
2023-03-26T20:57:13.415Z,98.60
2023-03-26T20:59:41.978Z,99.00
2023-03-26T21:02:11.921Z,99.28
2023-03-26T21:04:41.555Z,100.00
2023-03-26T21:07:17.802Z,100.00
2023-03-26T21:09:47.742Z,100.00
2023-03-26T21:12:22.818Z,100.00
2023-03-26T21:14:51.078Z,100.00
2023-03-26T21:17:22.130Z,100.00
2023-03-26T21:19:51.977Z,100.00
2023-03-26T21:22:35.251Z,100.00
2023-03-26T21:25:15.241Z,100.00
2023-03-26T21:27:52.873Z,100.00
2023-03-26T21:30:22.185Z,100.00
2023-03-26T21:32:51.261Z,100.00
2023-03-26T21:35:21.452Z,100.00
2023-03-26T21:37:50.769Z,100.00
2023-03-26T21:40:20.228Z,100.00
2023-03-26T21:42:50.993Z,100.00
2023-03-26T21:45:20.514Z,100.00
2023-03-26T21:47:49.297Z,100.00
2023-03-26T21:50:21.767Z,100.00
2023-03-26T21:52:51.144Z,100.00
2023-03-26T21:55:21.139Z,100.00
2023-03-26T21:58:12.456Z,100.00
2023-03-26T22:00:46.755Z,100.00
2023-03-26T22:03:23.929Z,100.00
2023-03-26T22:05:58.437Z,100.00
2023-03-26T22:08:31.114Z,100.00
2023-03-26T22:10:58.879Z,100.00
2023-03-26T22:13:27.325Z,100.00
2023-03-26T22:15:56.869Z,100.00
2023-03-26T22:18:26.065Z,100.00
2023-03-26T22:20:55.681Z,100.00
2023-03-26T22:23:23.732Z,100.00
2023-03-26T22:25:52.157Z,100.00
2023-03-26T22:28:20.421Z,100.00
2023-03-26T22:30:48.218Z,99.65
2023-03-26T22:33:17.914Z,99.26
2023-03-26T22:35:46.110Z,99.16
2023-03-26T22:38:17.066Z,99.13
2023-03-26T22:40:44.934Z,98.42
2023-03-26T22:43:12.724Z,98.02
2023-03-26T22:45:41.068Z,97.59
2023-03-26T22:48:08.886Z,96.73
2023-03-26T22:50:36.816Z,96.60
2023-03-26T22:53:04.844Z,95.25
2023-03-26T22:55:33.966Z,94.27
2023-03-26T22:58:01.737Z,92.71
2023-03-26T23:00:30.673Z,92.24
2023-03-26T23:03:00.491Z,91.09
2023-03-26T23:05:29.349Z,88.93
2023-03-26T23:07:57.140Z,87.91
2023-03-26T23:10:24.957Z,86.40
2023-03-26T23:12:54.312Z,85.03
2023-03-26T23:15:22.151Z,84.75
2023-03-26T23:17:54.896Z,84.17
2023-03-26T23:20:23.177Z,84.64
2023-03-26T23:22:51.363Z,86.09
2023-03-26T23:25:19.948Z,87.66
2023-03-26T23:27:48.435Z,88.35
2023-03-26T23:30:18.045Z,89.56
2023-03-26T23:32:45.793Z,90.05
2023-03-26T23:35:13.600Z,90.61
2023-03-26T23:37:42.260Z,90.50
2023-03-26T23:40:11.751Z,90.38
2023-03-26T23:42:39.562Z,90.93
2023-03-26T23:45:08.633Z,90.76
2023-03-26T23:47:42.425Z,90.55
2023-03-26T23:50:11.380Z,90.55
2023-03-26T23:52:39.407Z,91.39
2023-03-26T23:55:08.115Z,93.00
2023-03-26T23:57:37.121Z,94.22
